Time;durP1;ratioP1;P1;durP2;ratioP2;P2;SDS_P1;SDS_P2;PMS_P1;PMS_P2;Temp;Humidity;BMP_temperature;BMP_pressure;BME280_temperature;BME280_humidity;BME280_pressure;Samples;Min_cycle;Max_cycle;Signal;HPM_P1;HPM_P2
2022/11/18 00:00:14;;;;;;;;;;;256.20;1894.40;;;;;;5053733;28;19912;-83
2022/11/18 00:02:40;;;;;;;;;;;256.20;2252.80;;;;;;5027322;28;19966;-87
2022/11/18 00:05:06;;;;;;;;;;;256.20;2252.80;;;;;;5054781;28;19976;-87
2022/11/18 00:07:31;;;;;;;;;;;256.10;1868.80;;;;;;5051693;28;19952;-87
2022/11/18 00:09:57;;;;;;;;;;;256.10;2252.80;;;;;;5032166;28;20008;-87
2022/11/18 00:15:06;;;;;;;;;;;256.30;2252.80;;;;;;5059006;28;19931;-87
2022/11/18 00:17:32;;;;;;;;;;;256.30;2252.80;;;;;;5042849;28;19905;-87
2022/11/18 00:19:58;;;;;;;;;;;256.30;2252.80;;;;;;5057300;28;19995;-84
2022/11/18 00:22:23;;;;;;;;;;;256.30;2252.80;;;;;;5018999;28;19939;-87
2022/11/18 00:24:49;;;;;;;;;;;256.20;2252.80;;;;;;5045397;28;19916;-85
2022/11/18 00:27:14;;;;;;;;;;;256.30;2252.80;;;;;;5056230;28;19910;-87
2022/11/18 00:29:40;;;;;;;;;;;256.30;2252.80;;;;;;5061940;28;19950;-87
2022/11/18 00:32:05;;;;;;;;;;;256.20;1868.80;;;;;;5048267;28;19920;-87
2022/11/18 00:34:31;;;;;;;;;;;256.20;2022.40;;;;;;5042270;28;19912;-88
2022/11/18 00:36:57;;;;;;;;;;;256.30;1996.80;;;;;;5050112;28;19909;-87
2022/11/18 00:39:22;;;;;;;;;;;256.30;2048.00;;;;;;5054205;28;19927;-85
2022/11/18 00:44:32;;;;;;;;;;;256.40;1868.80;;;;;;5057488;28;19950;-87
2022/11/18 00:46:58;;;;;;;;;;;256.40;2022.40;;;;;;5022779;28;19905;-87
2022/11/18 00:49:24;;;;;;;;;;;256.40;2176.00;;;;;;5030608;28;19905;-87
2022/11/18 00:51:49;;;;;;;;;;;256.40;2252.80;;;;;;5060127;28;19912;-87
2022/11/18 00:54:15;;;;;;;;;;;256.40;2252.80;;;;;;5060497;28;19909;-88
2022/11/18 00:56:40;;;;;;;;;;;256.50;2252.80;;;;;;5049257;28;19911;-87
2022/11/18 00:59:06;;;;;;;;;;;256.40;2252.80;;;;;;5046100;28;19908;-87
2022/11/18 01:01:32;;;;;;;;;;;256.50;2252.80;;;;;;5047742;28;20009;-87
2022/11/18 01:03:57;;;;;;;;;;;256.40;2252.80;;;;;;5041992;28;19912;-87
2022/11/18 01:06:23;;;;;;;;;;;256.40;2252.80;;;;;;5048922;28;20274;-87
2022/11/18 01:08:49;;;;;;;;;;;256.40;2252.80;;;;;;5038606;28;20437;-87
2022/11/18 01:13:59;;;;;;;;;;;256.40;2252.80;;;;;;5068868;28;20277;-86
2022/11/18 01:16:26;;;;;;;;;;;256.40;1894.40;;;;;;5034538;28;19908;-87
2022/11/18 01:18:52;;;;;;;;;;;256.30;2048.00;;;;;;5058130;28;19905;-87
2022/11/18 01:21:18;;;;;;;;;;;256.30;2252.80;;;;;;5037769;28;20382;-88
2022/11/18 01:23:43;;;;;;;;;;;256.30;2252.80;;;;;;5042781;28;19909;-88
2022/11/18 01:26:11;;;;;;;;;;;256.30;2252.80;;;;;;5026580;28;19958;-87
2022/11/18 01:28:37;;;;;;;;;;;256.30;2252.80;;;;;;5021571;28;20363;-87
2022/11/18 01:31:07;;;;;;;;;;;256.30;2252.80;;;;;;5052415;28;19911;-87
2022/11/18 01:33:33;;;;;;;;;;;256.30;2252.80;;;;;;5037827;28;19991;-86
2022/11/18 01:35:58;;;;;;;;;;;256.40;2252.80;;;;;;5053145;28;19913;-88
2022/11/18 01:38:24;;;;;;;;;;;256.30;2252.80;;;;;;5050514;28;20351;-86
2022/11/18 01:40:50;;;;;;;;;;;256.30;2252.80;;;;;;5051341;28;19904;-87
2022/11/18 01:43:16;;;;;;;;;;;256.30;2252.80;;;;;;5043520;28;19911;-88
2022/11/18 01:45:42;;;;;;;;;;;256.40;2252.80;;;;;;5042653;28;19904;-87
2022/11/18 01:48:08;;;;;;;;;;;256.50;2252.80;;;;;;5038332;28;19916;-88
2022/11/18 01:50:35;;;;;;;;;;;256.50;2150.40;;;;;;5057206;28;19905;-87
2022/11/18 01:53:19;;;;;;;;;;;256.50;2252.80;;;;;;5035106;28;19905;-87
2022/11/18 01:55:47;;;;;;;;;;;256.50;2252.80;;;;;;5046920;28;19913;-86
2022/11/18 01:58:25;;;;;;;;;;;256.50;2252.80;;;;;;5057812;28;19951;-87
2022/11/18 02:00:50;;;;;;;;;;;256.50;1996.80;;;;;;5063333;28;19921;-85
2022/11/18 02:03:16;;;;;;;;;;;256.50;2201.60;;;;;;5049115;28;19957;-87
2022/11/18 02:05:42;;;;;;;;;;;256.40;2252.80;;;;;;5053339;28;20018;-86
2022/11/18 02:08:08;;;;;;;;;;;256.40;2252.80;;;;;;5027470;28;19944;-86
2022/11/18 02:10:34;;;;;;;;;;;256.50;2252.80;;;;;;5019630;28;19955;-87
2022/11/18 02:12:59;;;;;;;;;;;256.50;2252.80;;;;;;5044160;28;19909;-85
2022/11/18 02:15:31;;;;;;;;;;;256.50;2252.80;;;;;;5075324;28;19913;-87
2022/11/18 02:17:59;;;;;;;;;;;256.50;2252.80;;;;;;5047017;28;19949;-86
2022/11/18 02:20:45;;;;;;;;;;;256.50;2252.80;;;;;;5057400;28;20101;-86
2022/11/18 02:23:26;;;;;;;;;;;256.50;2252.80;;;;;;5048722;28;19905;-88
2022/11/18 02:25:52;;;;;;;;;;;256.50;2252.80;;;;;;5074821;28;19911;-87
2022/11/18 02:28:31;;;;;;;;;;;256.50;2252.80;;;;;;5041185;28;20000;-86
2022/11/18 02:31:26;;;;;;;;;;;256.50;2252.80;;;;;;5032898;28;19931;-85
2022/11/18 02:33:54;;;;;;;;;;;256.60;2252.80;;;;;;4993813;28;19939;-87
2022/11/18 02:36:25;;;;;;;;;;;256.60;2227.20;;;;;;4993435;28;19926;-87
2022/11/18 02:38:53;;;;;;;;;;;256.60;2252.80;;;;;;4970052;28;19909;-84
2022/11/18 02:41:22;;;;;;;;;;;256.70;2252.80;;;;;;4976654;28;19965;-87
2022/11/18 02:43:53;;;;;;;;;;;256.70;2252.80;;;;;;4977175;28;20069;-87
2022/11/18 02:46:26;;;;;;;;;;;256.70;2073.60;;;;;;4976548;28;19945;-87
2022/11/18 02:48:52;;;;;;;;;;;256.70;1996.80;;;;;;4993450;28;19906;-87
2022/11/18 02:51:20;;;;;;;;;;;256.80;2252.80;;;;;;4984980;28;19960;-87
2022/11/18 02:53:47;;;;;;;;;;;256.80;2252.80;;;;;;4976612;28;19952;-87
2022/11/18 02:56:14;;;;;;;;;;;256.90;2252.80;;;;;;4993291;28;19913;-87
2022/11/18 02:58:39;;;;;;;;;;;256.80;2252.80;;;;;;4977004;28;19914;-87
2022/11/18 03:01:05;;;;;;;;;;;256.90;2252.80;;;;;;4976896;28;19925;-86
2022/11/18 03:03:31;;;;;;;;;;;256.90;2252.80;;;;;;4992998;28;20364;-86
2022/11/18 03:06:08;;;;;;;;;;;256.90;2252.80;;;;;;4993174;28;19914;-86
2022/11/18 03:08:39;;;;;;;;;;;256.80;2252.80;;;;;;4976810;28;19917;-87
2022/11/18 03:11:11;;;;;;;;;;;256.80;2252.80;;;;;;5050800;28;19904;-87
2022/11/18 03:13:57;;;;;;;;;;;256.80;2252.80;;;;;;5027449;28;20374;-86
2022/11/18 03:16:27;;;;;;;;;;;256.70;2252.80;;;;;;5059984;28;19966;-87
2022/11/18 03:19:04;;;;;;;;;;;256.70;1920.00;;;;;;5055778;28;19927;-87
2022/11/18 03:21:38;;;;;;;;;;;256.60;2252.80;;;;;;5048422;28;19905;-84
2022/11/18 03:24:39;;;;;;;;;;;256.60;2176.00;;;;;;5051054;28;19905;-87
2022/11/18 03:27:10;;;;;;;;;;;256.50;2252.80;;;;;;4965138;28;19906;-87
2022/11/18 03:29:39;;;;;;;;;;;256.50;2252.80;;;;;;4956904;28;19914;-86
2022/11/18 03:32:09;;;;;;;;;;;256.50;2252.80;;;;;;4973190;28;19988;-87
2022/11/18 03:34:46;;;;;;;;;;;256.50;2252.80;;;;;;4989956;28;20000;-84
2022/11/18 03:37:13;;;;;;;;;;;256.50;2252.80;;;;;;4962678;28;20359;-86
2022/11/18 03:39:41;;;;;;;;;;;256.50;2252.80;;;;;;4973712;28;19906;-87
2022/11/18 03:42:06;;;;;;;;;;;256.50;2252.80;;;;;;4963680;28;20440;-87
2022/11/18 03:44:34;;;;;;;;;;;256.50;2252.80;;;;;;4983705;28;19906;-84
2022/11/18 03:47:08;;;;;;;;;;;256.50;2252.80;;;;;;4975050;28;20426;-84
2022/11/18 03:49:49;;;;;;;;;;;256.50;2252.80;;;;;;4967643;28;19913;-86
2022/11/18 03:52:20;;;;;;;;;;;256.50;2252.80;;;;;;4957890;28;19952;-87
2022/11/18 03:54:46;;;;;;;;;;;256.40;2252.80;;;;;;4968401;28;20530;-84
2022/11/18 03:57:19;;;;;;;;;;;256.30;2252.80;;;;;;4958922;28;19913;-88
2022/11/18 03:59:47;;;;;;;;;;;256.30;2252.80;;;;;;4952925;28;19925;-87
2022/11/18 04:02:12;;;;;;;;;;;256.30;2252.80;;;;;;5071758;28;20032;-87
2022/11/18 04:04:38;;;;;;;;;;;256.20;2252.80;;;;;;5053389;28;20255;-86
2022/11/18 04:07:04;;;;;;;;;;;256.30;2252.80;;;;;;5043457;28;19905;-87
2022/11/18 04:09:32;;;;;;;;;;;256.30;2252.80;;;;;;5062297;28;20255;-85
2022/11/18 04:12:01;;;;;;;;;;;256.30;2252.80;;;;;;5036061;28;19905;-87
2022/11/18 04:14:27;;;;;;;;;;;256.30;2252.80;;;;;;5042012;28;19915;-86
2022/11/18 04:16:53;;;;;;;;;;;256.40;2252.80;;;;;;5053812;28;19908;-86
2022/11/18 04:19:18;;;;;;;;;;;256.40;2252.80;;;;;;5058571;28;19942;-86
2022/11/18 04:21:45;;;;;;;;;;;256.40;2252.80;;;;;;5041651;28;19905;-87
2022/11/18 04:24:10;;;;;;;;;;;256.40;2252.80;;;;;;5054544;28;19904;-87
2022/11/18 04:26:36;;;;;;;;;;;256.30;2252.80;;;;;;5038018;28;19995;-87
2022/11/18 04:29:01;;;;;;;;;;;256.30;2252.80;;;;;;5062331;28;19994;-85
2022/11/18 04:31:27;;;;;;;;;;;256.20;2252.80;;;;;;5050233;28;19914;-86
2022/11/18 04:33:52;;;;;;;;;;;256.20;2252.80;;;;;;5045887;28;19911;-87
2022/11/18 04:36:18;;;;;;;;;;;256.20;2252.80;;;;;;5033626;28;19919;-87
2022/11/18 04:38:44;;;;;;;;;;;256.20;2252.80;;;;;;5062236;28;19904;-86
2022/11/18 04:41:10;;;;;;;;;;;256.20;2252.80;;;;;;5033760;28;19909;-87
2022/11/18 04:43:35;;;;;;;;;;;256.20;2252.80;;;;;;5061803;28;20418;-87
2022/11/18 04:46:01;;;;;;;;;;;256.20;2252.80;;;;;;5052418;28;19911;-87
2022/11/18 04:48:26;;;;;;;;;;;256.20;2252.80;;;;;;5041590;28;19924;-87
2022/11/18 04:50:52;;;;;;;;;;;256.20;2252.80;;;;;;5048982;28;19955;-87
2022/11/18 04:53:17;;;;;;;;;;;256.20;2252.80;;;;;;5048189;28;19905;-87
2022/11/18 04:55:43;;;;;;;;;;;256.20;2252.80;;;;;;5061919;28;20007;-85
2022/11/18 04:58:10;;;;;;;;;;;256.30;2252.80;;;;;;5061044;28;19904;-87
2022/11/18 05:00:36;;;;;;;;;;;256.30;2252.80;;;;;;5034157;28;19924;-87
2022/11/18 05:03:01;;;;;;;;;;;256.30;2252.80;;;;;;5042439;28;19905;-87
2022/11/18 05:05:27;;;;;;;;;;;256.40;2252.80;;;;;;5039552;28;20351;-86
2022/11/18 05:07:52;;;;;;;;;;;256.50;2252.80;;;;;;5060247;28;20020;-86
2022/11/18 05:10:18;;;;;;;;;;;256.40;2252.80;;;;;;5058243;28;19963;-86
2022/11/18 05:12:49;;;;;;;;;;;256.30;2252.80;;;;;;5050473;28;19905;-86
2022/11/18 05:15:15;;;;;;;;;;;256.30;2252.80;;;;;;5043584;28;19971;-87
2022/11/18 05:17:41;;;;;;;;;;;256.30;2252.80;;;;;;5025451;28;19904;-87
2022/11/18 05:20:07;;;;;;;;;;;256.30;2252.80;;;;;;5048684;28;19915;-87
2022/11/18 05:22:32;;;;;;;;;;;256.30;2252.80;;;;;;5030110;28;19905;-84
2022/11/18 05:24:58;;;;;;;;;;;256.30;2252.80;;;;;;5057550;28;19904;-84
2022/11/18 05:27:24;;;;;;;;;;;256.30;2252.80;;;;;;5074949;28;19911;-82
2022/11/18 05:29:49;;;;;;;;;;;256.30;2252.80;;;;;;5030494;28;19913;-82
2022/11/18 05:32:15;;;;;;;;;;;256.30;2252.80;;;;;;5075890;28;19904;-82
2022/11/18 05:34:41;;;;;;;;;;;256.30;2252.80;;;;;;5038353;28;19916;-83
2022/11/18 05:37:06;;;;;;;;;;;256.40;2252.80;;;;;;5056973;28;19908;-82
2022/11/18 05:39:32;;;;;;;;;;;256.40;2252.80;;;;;;5075796;28;19905;-82
2022/11/18 05:44:43;;;;;;;;;;;256.40;2252.80;;;;;;5070043;28;19912;-83
2022/11/18 05:47:08;;;;;;;;;;;256.40;2252.80;;;;;;5028592;28;19905;-83
2022/11/18 05:49:34;;;;;;;;;;;256.30;2252.80;;;;;;5064384;28;20274;-81
2022/11/18 05:52:00;;;;;;;;;;;256.20;2252.80;;;;;;5055524;28;20000;-82
2022/11/18 05:54:25;;;;;;;;;;;256.20;2252.80;;;;;;5037793;28;19951;-82
2022/11/18 05:56:51;;;;;;;;;;;256.20;2252.80;;;;;;5054776;28;19938;-82
2022/11/18 05:59:16;;;;;;;;;;;256.20;2252.80;;;;;;5036966;28;19994;-82
2022/11/18 06:01:44;;;;;;;;;;;256.20;2252.80;;;;;;5050251;28;20286;-82
2022/11/18 06:04:22;;;;;;;;;;;256.20;2252.80;;;;;;5065166;28;19911;-82
2022/11/18 06:06:49;;;;;;;;;;;256.30;2252.80;;;;;;5045394;28;19908;-82
2022/11/18 06:09:16;;;;;;;;;;;256.30;2252.80;;;;;;5042519;28;19908;-82
2022/11/18 06:11:44;;;;;;;;;;;256.30;2252.80;;;;;;5046215;28;19905;-83
2022/11/18 06:14:17;;;;;;;;;;;256.30;2252.80;;;;;;5072344;28;19911;-82
2022/11/18 06:16:45;;;;;;;;;;;256.30;2252.80;;;;;;5036068;28;19963;-82
2022/11/18 06:19:11;;;;;;;;;;;256.30;2252.80;;;;;;5023237;28;19947;-82
2022/11/18 06:21:36;;;;;;;;;;;256.40;2252.80;;;;;;5047054;28;19952;-83
2022/11/18 06:24:02;;;;;;;;;;;256.40;2252.80;;;;;;5051210;28;19904;-80
2022/11/18 06:26:28;;;;;;;;;;;256.50;2252.80;;;;;;5073182;28;19958;-81
2022/11/18 06:28:54;;;;;;;;;;;256.50;2227.20;;;;;;5056913;28;19998;-81
2022/11/18 06:31:19;;;;;;;;;;;256.50;2252.80;;;;;;5056620;28;19904;-82
2022/11/18 06:33:45;;;;;;;;;;;256.50;2099.20;;;;;;5074817;28;19905;-80
2022/11/18 06:36:10;;;;;;;;;;;256.50;2252.80;;;;;;5056545;28;19920;-82
2022/11/18 06:38:36;;;;;;;;;;;256.60;2252.80;;;;;;5046602;28;19904;-80
2022/11/18 06:41:02;;;;;;;;;;;256.60;2227.20;;;;;;5056357;28;19908;-81
2022/11/18 06:43:42;;;;;;;;;;;256.60;2252.80;;;;;;5056405;28;19916;-83
2022/11/18 06:48:56;;;;;;;;;;;256.70;2252.80;;;;;;5049716;28;19946;-84
2022/11/18 06:51:21;;;;;;;;;;;256.70;2252.80;;;;;;5056500;28;20357;-78
2022/11/18 06:53:47;;;;;;;;;;;256.60;2252.80;;;;;;5074290;28;19912;-80
2022/11/18 06:56:13;;;;;;;;;;;256.60;2252.80;;;;;;5055582;28;20543;-82
2022/11/18 06:58:39;;;;;;;;;;;256.60;2252.80;;;;;;5049207;28;19956;-81
2022/11/18 07:01:14;;;;;;;;;;;256.70;2252.80;;;;;;5047143;28;20001;-79
2022/11/18 07:03:40;;;;;;;;;;;256.70;2252.80;;;;;;5055062;28;19962;-90
2022/11/18 07:06:06;;;;;;;;;;;256.60;2252.80;;;;;;5056759;28;19908;-82
2022/11/18 07:08:33;;;;;;;;;;;256.60;2252.80;;;;;;5055947;28;19904;-82
2022/11/18 07:10:58;;;;;;;;;;;256.60;2252.80;;;;;;5056099;28;20277;-81
2022/11/18 07:13:24;;;;;;;;;;;256.70;2252.80;;;;;;5043878;28;19919;-79
2022/11/18 07:15:50;;;;;;;;;;;256.80;2252.80;;;;;;5035334;28;19920;-80
2022/11/18 07:18:15;;;;;;;;;;;256.90;2252.80;;;;;;5062846;28;20011;-79
2022/11/18 07:20:41;;;;;;;;;;;256.90;2252.80;;;;;;5054250;28;19905;-81
2022/11/18 07:23:06;;;;;;;;;;;256.90;2176.00;;;;;;5067668;28;19904;-82
2022/11/18 07:25:32;;;;;;;;;;;281.60;2278.40;;;;;;5016637;28;20343;-86
2022/11/18 07:27:57;;;;;;;;;;;281.60;2048.00;;;;;;5040258;28;20200;-80
2022/11/18 07:30:23;;;;;;;;;;;281.60;2278.40;;;;;;5055514;28;19931;-81
2022/11/18 07:32:49;;;;;;;;;;;281.60;2278.40;;;;;;5072054;28;19931;-88
2022/11/18 07:35:16;;;;;;;;;;;281.60;2278.40;;;;;;5061321;28;19913;-84
2022/11/18 07:37:41;;;;;;;;;;;281.70;2278.40;;;;;;5041529;28;19905;-81
2022/11/18 07:40:07;;;;;;;;;;;281.60;2278.40;;;;;;5045148;28;20016;-86
2022/11/18 07:42:41;;;;;;;;;;;256.90;2252.80;;;;;;5040514;28;19904;-85
2022/11/18 07:45:10;;;;;;;;;;;281.60;2278.40;;;;;;5053732;28;20343;-83
2022/11/18 07:47:36;;;;;;;;;;;281.70;2278.40;;;;;;5036378;28;19946;-84
2022/11/18 07:50:02;;;;;;;;;;;281.70;2278.40;;;;;;5066803;28;19936;-82
2022/11/18 07:52:27;;;;;;;;;;;281.70;2278.40;;;;;;5065816;28;20363;-83
2022/11/18 07:54:53;;;;;;;;;;;281.70;2278.40;;;;;;5055437;28;19955;-83
2022/11/18 07:57:18;;;;;;;;;;;281.70;2278.40;;;;;;5073483;28;19904;-82
2022/11/18 07:59:44;;;;;;;;;;;281.80;2278.40;;;;;;5055041;28;19939;-84
2022/11/18 08:02:12;;;;;;;;;;;281.80;2278.40;;;;;;5057113;28;20397;-85
2022/11/18 08:04:38;;;;;;;;;;;281.80;2278.40;;;;;;5062480;28;19908;-78
2022/11/18 08:07:03;;;;;;;;;;;281.70;2278.40;;;;;;5049066;28;19916;-80
2022/11/18 08:09:29;;;;;;;;;;;281.80;2278.40;;;;;;5066022;28;20368;-77
2022/11/18 08:11:54;;;;;;;;;;;281.80;2278.40;;;;;;5053927;28;19932;-81
2022/11/18 08:14:22;;;;;;;;;;;281.80;2278.40;;;;;;5046075;28;19957;-81
2022/11/18 08:16:48;;;;;;;;;;;281.80;2278.40;;;;;;5024583;28;19915;-79
2022/11/18 08:19:14;;;;;;;;;;;281.80;2278.40;;;;;;5035347;28;19995;-82
2022/11/18 08:21:39;;;;;;;;;;;281.80;2278.40;;;;;;5067301;28;19911;-80
2022/11/18 08:24:05;;;;;;;;;;;281.70;2278.40;;;;;;5060139;28;19916;-84
2022/11/18 08:26:30;;;;;;;;;;;281.70;2278.40;;;;;;5042416;28;20334;-80
2022/11/18 08:28:56;;;;;;;;;;;281.70;2278.40;;;;;;5057228;28;19912;-80
2022/11/18 08:31:24;;;;;;;;;;;281.70;2278.40;;;;;;5055678;28;19905;-83
2022/11/18 08:33:53;;;;;;;;;;;281.70;2278.40;;;;;;5041469;28;19913;-81
2022/11/18 08:36:20;;;;;;;;;;;281.70;2278.40;;;;;;5036678;28;20337;-80
2022/11/18 08:38:46;;;;;;;;;;;281.70;2278.40;;;;;;5049911;28;19920;-78
2022/11/18 08:41:13;;;;;;;;;;;281.70;2278.40;;;;;;5057113;28;19908;-81
2022/11/18 08:43:38;;;;;;;;;;;281.70;2278.40;;;;;;5047079;28;20349;-79
2022/11/18 08:46:04;;;;;;;;;;;281.80;2278.40;;;;;;5047984;28;19938;-77
2022/11/18 08:48:30;;;;;;;;;;;281.80;2278.40;;;;;;5037869;28;19905;-77
2022/11/18 08:50:57;;;;;;;;;;;281.70;2278.40;;;;;;5055751;28;19905;-79
2022/11/18 08:53:22;;;;;;;;;;;281.70;2278.40;;;;;;5038444;28;19912;-78
2022/11/18 08:55:53;;;;;;;;;;;281.80;1996.80;;;;;;5057459;28;19924;-78
2022/11/18 08:58:18;;;;;;;;;;;281.80;2278.40;;;;;;5059262;28;19911;-78
2022/11/18 09:00:44;;;;;;;;;;;281.80;2278.40;;;;;;5046408;28;19916;-78
2022/11/18 09:03:10;;;;;;;;;;;281.80;1920.00;;;;;;5057582;28;19904;-78
2022/11/18 09:05:35;;;;;;;;;;;281.80;2278.40;;;;;;5038044;28;19912;-81
2022/11/18 09:08:01;;;;;;;;;;;281.80;2278.40;;;;;;5050754;28;19905;-79
2022/11/18 09:10:27;;;;;;;;;;;281.80;2278.40;;;;;;5034722;28;19905;-79
2022/11/18 09:12:53;;;;;;;;;;;281.80;2278.40;;;;;;5028797;28;19940;-77
2022/11/18 09:15:18;;;;;;;;;;;281.80;2278.40;;;;;;5054639;28;19962;-79
2022/11/18 09:17:44;;;;;;;;;;;281.80;2278.40;;;;;;5067005;28;19904;-80
2022/11/18 09:20:09;;;;;;;;;;;281.70;2278.40;;;;;;5051114;28;19904;-80
2022/11/18 09:22:36;;;;;;;;;;;281.70;2278.40;;;;;;5024420;28;20282;-79
2022/11/18 09:25:02;;;;;;;;;;;281.60;2278.40;;;;;;5038263;28;19955;-82
2022/11/18 09:27:27;;;;;;;;;;;281.70;2278.40;;;;;;5055972;28;19966;-82
2022/11/18 09:29:53;;;;;;;;;;;256.90;2252.80;;;;;;5057568;28;20290;-80
2022/11/18 09:32:18;;;;;;;;;;;256.90;2252.80;;;;;;5057201;28;19905;-80
2022/11/18 09:34:44;;;;;;;;;;;256.90;2252.80;;;;;;5057967;28;19909;-82
2022/11/18 09:37:09;;;;;;;;;;;281.60;2278.40;;;;;;5049840;28;19940;-81
2022/11/18 09:39:38;;;;;;;;;;;281.70;2278.40;;;;;;5056230;28;19950;-80
2022/11/18 09:42:14;;;;;;;;;;;281.80;2278.40;;;;;;5057526;28;20011;-81
2022/11/18 09:44:43;;;;;;;;;;;281.80;2278.40;;;;;;5038876;28;19908;-81
2022/11/18 09:47:18;;;;;;;;;;;281.90;2278.40;;;;;;5046611;28;19904;-80
2022/11/18 09:49:44;;;;;;;;;;;281.90;2278.40;;;;;;5057537;28;19910;-79
2022/11/18 09:52:09;;;;;;;;;;;282.00;2278.40;;;;;;5075069;28;19908;-78
2022/11/18 09:54:35;;;;;;;;;;;282.00;2278.40;;;;;;5037070;28;19909;-81
2022/11/18 09:57:01;;;;;;;;;;;282.10;2278.40;;;;;;5043187;28;19913;-80
2022/11/18 09:59:29;;;;;;;;;;;282.10;2278.40;;;;;;5056631;28;19916;-81
2022/11/18 10:01:56;;;;;;;;;;;282.10;2278.40;;;;;;5037138;28;20440;-80
2022/11/18 10:04:22;;;;;;;;;;;282.10;2278.40;;;;;;5036029;28;20354;-80
2022/11/18 10:06:48;;;;;;;;;;;282.00;2278.40;;;;;;5066246;28;19916;-82
2022/11/18 10:09:26;;;;;;;;;;;281.90;2278.40;;;;;;5037147;28;19904;-80
2022/11/18 10:11:54;;;;;;;;;;;282.00;2278.40;;;;;;5045104;28;19905;-80
2022/11/18 10:14:35;;;;;;;;;;;281.90;2278.40;;;;;;5042814;28;20062;-79
2022/11/18 10:17:18;;;;;;;;;;;281.80;2278.40;;;;;;5048242;28;19909;-76
2022/11/18 10:19:51;;;;;;;;;;;281.90;2278.40;;;;;;5022124;28;20043;-79
2022/11/18 10:22:17;;;;;;;;;;;281.90;2278.40;;;;;;5054134;28;19927;-77
2022/11/18 10:24:47;;;;;;;;;;;281.90;2278.40;;;;;;5054256;28;20350;-79
2022/11/18 10:27:14;;;;;;;;;;;282.00;2278.40;;;;;;5036454;28;20019;-80
2022/11/18 10:29:41;;;;;;;;;;;282.10;2278.40;;;;;;5050351;28;20374;-81
2022/11/18 10:32:09;;;;;;;;;;;282.10;2278.40;;;;;;5043368;28;20425;-80
2022/11/18 10:34:45;;;;;;;;;;;282.20;2278.40;;;;;;5043428;28;19912;-79
2022/11/18 10:37:26;;;;;;;;;;;282.20;2278.40;;;;;;5042949;28;20297;-79
2022/11/18 10:39:53;;;;;;;;;;;282.20;2278.40;;;;;;5056471;28;19912;-79
2022/11/18 10:42:28;;;;;;;;;;;282.30;2278.40;;;;;;5042494;28;19913;-79
2022/11/18 10:44:54;;;;;;;;;;;282.30;2278.40;;;;;;5048986;28;19908;-79
2022/11/18 10:47:20;;;;;;;;;;;282.30;2278.40;;;;;;5046080;28;19915;-79
2022/11/18 10:49:45;;;;;;;;;;;282.30;2278.40;;;;;;5052938;28;19905;-78
2022/11/18 10:52:13;;;;;;;;;;;282.30;2278.40;;;;;;5035126;28;19911;-79
2022/11/18 10:54:39;;;;;;;;;;;282.30;2278.40;;;;;;5049233;28;19908;-79
2022/11/18 10:57:07;;;;;;;;;;;282.40;2278.40;;;;;;5048526;28;20324;-80
2022/11/18 10:59:34;;;;;;;;;;;282.40;2278.40;;;;;;5028699;28;19985;-79
2022/11/18 11:02:02;;;;;;;;;;;282.40;2278.40;;;;;;5035712;28;19924;-79
2022/11/18 11:04:28;;;;;;;;;;;282.50;2278.40;;;;;;5053888;28;19909;-78
2022/11/18 11:06:55;;;;;;;;;;;307.20;2304.00;;;;;;5038981;28;19911;-80
2022/11/18 11:09:21;;;;;;;;;;;307.20;2304.00;;;;;;5055874;28;19904;-79
2022/11/18 11:11:55;;;;;;;;;;;307.30;2304.00;;;;;;5051077;28;20381;-79
2022/11/18 11:14:31;;;;;;;;;;;307.30;2304.00;;;;;;5025178;28;19911;-77
2022/11/18 11:17:25;;;;;;;;;;;307.40;2304.00;;;;;;5067063;28;19916;-77
2022/11/18 11:20:03;;;;;;;;;;;307.40;2304.00;;;;;;5026412;28;19916;-78
2022/11/18 11:22:29;;;;;;;;;;;307.40;2304.00;;;;;;5035506;28;19909;-79
2022/11/18 11:24:55;;;;;;;;;;;307.40;2304.00;;;;;;5035572;28;19912;-78
2022/11/18 11:27:50;;;;;;;;;;;307.40;2304.00;;;;;;5035352;28;19963;-80
2022/11/18 11:30:20;;;;;;;;;;;307.30;2304.00;;;;;;4990651;28;19956;-78
2022/11/18 11:32:51;;;;;;;;;;;307.30;2304.00;;;;;;4975536;28;20442;-78
2022/11/18 11:35:19;;;;;;;;;;;307.30;2304.00;;;;;;4975755;28;19960;-82
2022/11/18 11:37:57;;;;;;;;;;;307.40;2304.00;;;;;;4992392;28;19906;-80
2022/11/18 11:40:24;;;;;;;;;;;307.40;2304.00;;;;;;4975721;28;19909;-82
2022/11/18 11:42:59;;;;;;;;;;;307.50;2304.00;;;;;;4976342;28;19917;-82
2022/11/18 11:45:28;;;;;;;;;;;307.50;2304.00;;;;;;4982586;28;19905;-81
2022/11/18 11:47:55;;;;;;;;;;;307.60;2304.00;;;;;;4991880;28;19910;-82
2022/11/18 11:50:24;;;;;;;;;;;307.60;2304.00;;;;;;4975285;28;19938;-78
2022/11/18 11:52:59;;;;;;;;;;;307.70;2304.00;;;;;;4974577;28;19910;-81
2022/11/18 11:55:36;;;;;;;;;;;307.70;2304.00;;;;;;4975441;28;20004;-80
2022/11/18 11:58:16;;;;;;;;;;;307.70;2304.00;;;;;;4975956;28;19949;-80
2022/11/18 12:00:48;;;;;;;;;;;307.80;2304.00;;;;;;4975542;28;20319;-80
2022/11/18 12:03:24;;;;;;;;;;;307.90;2304.00;;;;;;4991988;28;19906;-80
2022/11/18 12:05:49;;;;;;;;;;;307.80;2304.00;;;;;;4985079;28;19905;-85
2022/11/18 12:08:19;;;;;;;;;;;307.80;2304.00;;;;;;5034884;28;19968;-84
2022/11/18 12:10:57;;;;;;;;;;;307.90;2304.00;;;;;;5040520;28;19912;-84
2022/11/18 12:13:41;;;;;;;;;;;307.90;2304.00;;;;;;5043347;28;19905;-83
2022/11/18 12:16:10;;;;;;;;;;;307.80;2304.00;;;;;;5048253;28;19923;-82
2022/11/18 12:18:57;;;;;;;;;;;307.90;2304.00;;;;;;5051334;28;20365;-84
2022/11/18 12:21:42;;;;;;;;;;;307.90;2304.00;;;;;;5059119;28;19911;-84
2022/11/18 12:24:30;;;;;;;;;;;307.90;2304.00;;;;;;5059309;28;19912;-84
2022/11/18 12:26:56;;;;;;;;;;;307.90;2304.00;;;;;;5077126;28;20620;-85
2022/11/18 12:29:23;;;;;;;;;;;307.90;2304.00;;;;;;5058686;28;19965;-83
2022/11/18 12:31:53;;;;;;;;;;;332.90;2329.60;;;;;;5058733;28;19912;-82
2022/11/18 12:34:25;;;;;;;;;;;307.80;2304.00;;;;;;5058823;28;20751;-79
2022/11/18 12:36:52;;;;;;;;;;;307.90;2304.00;;;;;;5058321;28;20003;-89
2022/11/18 12:39:23;;;;;;;;;;;307.90;2304.00;;;;;;5075964;28;20389;-82
2022/11/18 12:44:41;;;;;;;;;;;307.90;2304.00;;;;;;5056689;28;20390;-81
2022/11/18 12:47:07;;;;;;;;;;;307.90;2304.00;;;;;;5046584;28;19930;-79
2022/11/18 12:49:33;;;;;;;;;;;307.90;2304.00;;;;;;5047705;28;19905;-82
2022/11/18 12:51:59;;;;;;;;;;;307.90;2304.00;;;;;;5072914;28;19912;-81
2022/11/18 12:54:26;;;;;;;;;;;307.90;2304.00;;;;;;5058323;28;20034;-79
2022/11/18 12:56:53;;;;;;;;;;;307.90;2304.00;;;;;;5042780;28;19966;-80
2022/11/18 12:59:29;;;;;;;;;;;307.90;2304.00;;;;;;5036132;28;20373;-79
2022/11/18 13:02:10;;;;;;;;;;;307.90;2304.00;;;;;;5019958;28;19917;-81
2022/11/18 13:04:36;;;;;;;;;;;307.90;2304.00;;;;;;5035044;28;19905;-79
2022/11/18 13:07:04;;;;;;;;;;;307.90;2304.00;;;;;;5034263;28;19912;-78
2022/11/18 13:09:32;;;;;;;;;;;307.90;2304.00;;;;;;5035347;28;19916;-79
2022/11/18 13:11:59;;;;;;;;;;;307.90;2304.00;;;;;;5033920;28;19905;-78
2022/11/18 13:20:18;;;;;;;;;;;307.90;2304.00;;;;;;5046260;28;19961;-78
2022/11/18 13:25:41;;;;;;;;;;;307.90;2304.00;;;;;;5055309;28;19958;-78
2022/11/18 13:28:19;;;;;;;;;;;307.90;2304.00;;;;;;5044029;28;20350;-79
2022/11/18 13:30:52;;;;;;;;;;;307.90;2304.00;;;;;;5075326;28;19912;-79
2022/11/18 13:33:17;;;;;;;;;;;307.90;2304.00;;;;;;5045934;28;19908;-80
2022/11/18 13:35:43;;;;;;;;;;;307.90;2304.00;;;;;;5076046;28;19913;-81
2022/11/18 13:38:17;;;;;;;;;;;307.90;2304.00;;;;;;5057234;28;20346;-81
2022/11/18 13:43:32;;;;;;;;;;;307.90;2304.00;;;;;;5062536;28;19938;-79
2022/11/18 13:46:18;;;;;;;;;;;307.90;2304.00;;;;;;5048222;28;19995;-79
2022/11/18 13:48:50;;;;;;;;;;;307.90;2304.00;;;;;;5056154;28;19911;-83
2022/11/18 13:51:16;;;;;;;;;;;307.90;2304.00;;;;;;5057409;28;19927;-78
2022/11/18 13:53:43;;;;;;;;;;;307.90;2304.00;;;;;;5056830;28;19905;-79
2022/11/18 13:56:15;;;;;;;;;;;307.90;2304.00;;;;;;5044395;28;20015;-84
2022/11/18 13:58:49;;;;;;;;;;;307.90;2304.00;;;;;;5057573;28;19912;-81
2022/11/18 14:01:18;;;;;;;;;;;307.90;2201.60;;;;;;5057064;28;19969;-80
2022/11/18 14:03:44;;;;;;;;;;;307.80;2304.00;;;;;;5075036;28;20294;-82
2022/11/18 14:06:10;;;;;;;;;;;307.80;2304.00;;;;;;5056592;28;19995;-82
2022/11/18 14:08:37;;;;;;;;;;;307.70;2304.00;;;;;;5057853;28;19997;-85
2022/11/18 14:11:03;;;;;;;;;;;307.70;2304.00;;;;;;5056679;28;19995;-83
2022/11/18 14:13:34;;;;;;;;;;;307.70;2304.00;;;;;;5056717;28;20377;-79
2022/11/18 14:16:19;;;;;;;;;;;307.70;2304.00;;;;;;5075020;28;19912;-82